Create Custom Reports and Graphics: Custom Report

North Region Latest Observations

Map

10 Minute Data

Winnemucca/Elko Latest Observations

Map

10 Minute Data

South Region Latest Observations

Map

10 Minute Data

Latest Observation

114 Stations

10 Minute Data
as of 9/3/26 11:55 PM PDT
Station Date Time Temp (°F) RH (%) Dew Pt (°F) Wind Spd (mph) Wind Dir (°) Wind Gust (mph) Wind Gst Dir (°) Latest Rain (In) Soil Moist (%) Soil Temp (°F) Daily Rain (In) Daily Min Temp (°F) Daily Max Temp (°F) Daily Max Wind (mph)
Hobart Mills 9/3/26 2350 48.6   1.0 87   22 44.9   6.5 3.0   0.6 SSE | 156 13.2   2.9 WSW | 243 0.00 7.5   0.0 63.1   2.1 0.03 48.0   3.4 57.0   4.8 20.5   0.9
Prosser Dam 9/3/26 2350 52.1   1.5 73   13 43.7   6.3 4.9   1.6 S | 170 10.3   2.6 SSE | 155 0.00 5.2   0.1 61.2   1.0 0.00 50.1   8.6 59.5   2.2 22.0   7.6
West Incline Village 9/3/26 2350 46.5   1.7 82   13 41.4   6.1 5.5   1.2 S | 188 16.5   6.0 S | 180 0.00 11.7   0.0 56.8   0.8 0.00 44.5   4.1 52.2   1.8 22.5   4.3
Incline Village (Fairview Blvd) 9/3/26 2350 48.7   1.9 76   12 41.4   6.3 3.7   3.3 SW | 232 12.3   8.7 WSW | 244 0.00 7.6   0.0 69.6   1.1 0.00 46.4   3.6 54.1   3.4 21.5   0.2
Incline Village (Diamond Peak) 9/3/26 2350 46.5   2.3 75   5 39.1   4.1 4.1   1.3 NW | 324 7.9   2.0 W | 266 0.00 2.4   0.0 58.3   1.6 0.00 43.6   3.4 50.7   2.9 15.2   0.4
Incline Village (Mill Creek) 9/3/26 2350 51.4 67 40.7 4.2 WSW | 245 13.4 SSW | 204 0.00 2.9 61.4 0.00 49.4 57.0 18.9
Incline Village (Lakeshore Blvd) 9/3/26 2350 53.8   1.7 74   5 45.7   3.6 7.5   3.8 SW | 233 17.0   9.0 SW | 223 0.00 24.3   2.8 60.0   0.4 0.00 50.5   3.0 56.8   0.4 19.5   1.0
Glenbrook 9/3/26 2350 53.3   0.0 65   11 41.7   4.7 10.8   1.4 WSW | 238 22.1   5.5 SW | 234 0.00 43.3   0.2 58.3   0.4 0.00 51.5   2.8 57.8   1.3 26.8   0.6
Zephyr Cove 9/3/26 2350 51.2   1.6 62   6 38.4   3.9 1.1   0.6 S | 183 4.5   1.1 SSW | 204 0.00 2.8   0.0 61.7   3.5 0.00 47.8   2.6 58.7   2.6 13.2   1.5
Kingsbury Grade 9/3/26 2350 49.6   3.3 63   4 37.3   1.6 3.6   2.4 WSW | 254 12.7   9.2 WSW | 246 0.00 2.2   0.4 65.8   0.7 0.00 44.2   2.8 60.1   0.5 17.0   3.5
South Daggett Pass (Ridge) 9/3/26 2350 46.3   3.9 67   7 36.1   1.3 2.6   0.5 WSW | 256 9.1   2.4 SSW | 203 0.00 2.2   0.0 61.8   1.1 0.00 40.6   2.1 55.6   0.1 25.3   3.0
Palomino Valley 9/3/26 2350 62.3   4.7 47   8 41.6   9.2 5.7   0.1 SW | 218 10.9   2.7 WSW | 239 0.00 6.6   0.0 75.8   0.2 0.00 51.7   2.4 72.1   2.8 33.3   0.1
East Cold Springs 9/3/26 2350 53.9   0.4 67   22 43.3   9.9 6.9   2.7 SW | 231 10.7   5.0 SSW | 197 0.00 1.6   0.0 70.9   0.4 0.00 51.9   5.3 66.1   0.1 30.7   0.2
Peavine 9/3/26 2350 51.5   2.4 71   34 42.3   14.2 8.8   16.6 SSW | 213 13.3   21.5 SW | 214 0.00 4.3   0.0 68.0   1.2 0.00 51.2   0.2 62.1   0.7 46.8   4.9
West Verdi Peak 9/4/26 0050 47.4   0.9 88   25 44.0   7.6 2.1   1.6 S | 179 8.1   7.1 SSE | 161 0.01 6.5   0.0 67.0   2.0 0.04 47.2   4.4 58.6   1.5 21.7   4.5
West Verdi 9/3/26 2350 55.0   0.8 70   19 45.2   7.8 7.3   2.0 SSW | 197 17.5   1.1 SSW | 202 0.00 6.2   0.0 78.7   1.1 0.00 54.1   3.9 64.2   1.3 36.5   1.1
South Verdi 9/3/26 2350 55.0   1.6 63   11 42.8   6.6 20.5   2.9 SSW | 212 28.3   0.5 SW | 220 0.00 10.3   0.1 70.1   1.0 0.00 53.4   4.2 61.9   2.0 44.8   0.1
Northwest Reno 9/3/26 2350 57.4   1.6 59   11 43.0   6.8 18.9   13.4 WSW | 258 27.0   13.7 W | 262 0.00 24.7   0.1 74.6   1.2 0.00 55.2   3.2 65.5   0.2 50.6   2.6
North Lawton 8/28/26 1620 63.8   17.1 74   52 55.4   16.5 1.5   11.6 ESE | 121 5.1   19.0 SE | 124 0.00 - 78.2   0.0 0.05 59.2   7.5 71.9   13.3 20.4   4.6
West Reno (Mogul) 9/3/26 2350 57.9   1.8 57   15 42.7   9.3 7.0   13.6 SW | 229 12.4   14.2 W | 274 0.00 19.5   0.1 77.2   0.9 0.00 55.3   4.2 66.3   1.5 32.2   1.1
Caughlin (Hunter Lake Trail) 9/3/26 2350 57.1   0.8 58   30 42.4   17.3 4.1   11.0 SSE | 152 13.0   14.0 SE | 140 0.00 16.3   0.0 72.3   0.4 0.00 55.0   5.0 65.2   0.4 42.8   3.2
ArrowCreek 9/3/26 2350 57.6   1.0 56   19 42.2   11.1 11.6   10.2 SSE | 159 21.6   15.6 S | 174 0.00 - 32.0   0.0 0.01 -2.1   52.6 86.2   19.6 37.9   2.4
Tracy 9/3/26 2350 64.2   2.1 42   8 40.4   7.6 11.7   2.1 SW | 221 21.1   4.5 SW | 219 0.00 15.7   0.1 77.7   0.1 0.00 58.3   2.1 73.1   1.2 31.7   2.4
Virginia Highlands 9/3/26 2350 54.7   3.3 52   4 37.5   5.0 8.5   4.1 S | 180 18.1   10.8 S | 182 0.00 7.8   0.1 72.2   1.3 0.00 49.2   0.5 63.6   3.5 30.6   6.0
Virginia City 9/3/26 2350 53.6   2.3 53   7 37.0   5.8 10.5   1.2 S | 171 19.9   0.4 S | 177 0.00 4.8   0.0 72.4   0.1 0.00 49.9   2.6 63.8   3.5 39.6   9.2
Six Mile Canyon 9/3/26 2350 62.8   1.6 40   8 38.3   7.3 9.9   4.4 SW | 231 14.8   3.8 SW | 231 0.00 12.3   0.1 76.0   1.2 0.00 54.5   0.1 73.5   3.4 35.5   9.7
Mt Rose Highway 9/3/26 2350 46.5   1.1 77   36 39.8   14.4 4.9   0.1 S | 190 21.1   7.7 W | 272 0.00 7.4   0.0 60.6   0.7 0.03 44.7   1.6 56.0   0.7 35.3   0.1
Pleasant Valley 9/3/26 2350 60.1   0.9 45   8 38.8   5.8 11.6   8.1 S | 185 17.4   11.8 S | 172 0.00 2.4   0.0 76.0   0.0 0.00 56.1   1.6 67.6   1.3 36.9   2.1
New Washoe City 9/3/26 2350 58.6   2.1 46   1 38.2   1.2 10.9   2.6 SSW | 199 19.0   4.7 SSW | 209 0.00 3.5   0.0 71.4   1.3 0.00 52.8   0.5 66.9   1.0 29.6   2.1
Franktown Creek 9/3/26 2350 59.2   4.1 52   2 41.5   4.6 5.1   4.3 SSW | 198 13.7   9.6 SSW | 205 0.00 7.0   0.1 70.9   0.7 0.00 56.1   2.4 66.7   1.0 32.9   3.6
Musgrove Creek 9/3/26 2350 56.1   4.8 52   1 38.8   4.2 1.6   0.5 SE | 125 6.8   3.1 ESE | 112 0.00 10.3   0.0 59.9   0.4 0.00 50.8   1.0 63.9   0.6 22.6   1.0
East Carson 11/23/24 0110 28.6   28.4 - - 4.7   11.0 SW | 220 14.7   10.1 SW | 219 0.02 - 50.9   0.1 0.02 -25.9   79.1 42.9   14.6 16.0   10.7
Kings Canyon 9/3/26 2350 58.0   1.4 48   9 38.4   6.5 4.8   3.0 SSE | 163 14.4   8.3 SSE | 154 0.00 4.2   0.0 68.3   1.5 0.00 54.1   3.1 65.7   0.0 29.4   1.4
Carson City (Voltaire Canyon) 9/3/26 2350 59.7   0.0 46   16 38.7   11.0 20.8   8.4 SSW | 196 29.7   7.6 SSW | 192 0.00 2.8   0.0 77.0   1.2 0.00 53.3   0.4 68.9   0.8 41.2   8.4
Jacks Valley 9/3/26 2350 58.7   1.8 46   10 37.9   8.0 11.6   5.1 SW | 226 19.9   9.6 SSW | 207 0.00 4.6   0.0 76.8   0.2 0.00 54.3   2.0 67.9   0.6 39.4   3.3
Genoa 9/3/26 2350 60.9   2.1 46   3 39.8   3.9 0.3   1.8 NW | 312 3.0   3.6 ENE | 75 0.00 2.3   0.1 69.3   2.4 0.00 55.3   2.4 71.0   0.2 19.0   2.7
South Genoa (Walleys Hot Springs) 9/3/26 2350 61.5   0.4 46   15 40.7   9.4 6.0   6.0 S | 173 13.5   4.6 SSE | 164 0.00 4.8   0.2 73.7   0.6 0.00 48.4   5.8 70.6   0.3 29.8   1.9
SW Gardnerville (HWY 88) 9/3/26 2350 60.1   4.7 48   2 40.4   5.3 18.2   12.5 SE | 137 24.3   16.3 SE | 131 0.00 2.8   0.0 68.4   0.8 0.00 46.1   5.7 70.8   0.6 36.4   6.1
Sheridan 9/3/26 2350 59.5   6.0 48   1 39.7   6.1 8.1   4.6 ESE | 111 15.6   6.2 E | 97 0.00 1.1   0.0 72.5   0.7 0.00 49.0   1.8 72.7   1.4 28.2   1.1
Ruhenstroth 9/3/26 2350 59.3   1.0 46   6 38.4   4.4 17.7   7.1 S | 181 26.8   10.3 S | 173 0.00 6.9   0.0 74.1   0.1 0.00 54.3   0.1 70.0   0.9 35.8   4.5
Double Spring 9/3/26 2350 55.4   4.9 51   1 37.8   4.0 6.3   1.9 WSW | 242 9.4   2.6 SW | 224 0.00 25.1   0.1 71.4   0.2 0.00 38.7   0.2 66.6   1.7 27.1   3.9
North Topaz Lake 9/3/26 2350 58.5   1.0 48   17 38.7   11.6 7.4   1.0 S | 172 15.9   3.5 SSE | 161 0.00 7.6   0.1 72.4   2.4 0.00 54.5   1.8 71.2   2.1 28.9   1.0
Wild Oat Mountain 9/3/26 2350 56.4   0.3 49   18 37.7   11.2 9.6   2.5 S | 184 19.5   1.6 S | 185 0.00 5.7   0.0 72.4   0.9 0.00 52.0   2.2 68.7   1.0 31.7   2.2
Smith Valley 9/3/26 2350 62.9   0.9 41   21 38.6   17.1 7.7   0.7 SSW | 208 20.6   6.2 SSE | 163 0.00 2.8   0.0 79.0   0.5 0.00 57.2   3.4 76.2   3.3 31.4   0.7
Pine Grove Mountain 9/3/26 2350 46.3   2.6 58   26 32.2   11.7 4.8   0.8 SSE | 161 10.7   0.2 S | 176 0.00 6.7   0.0 66.2   1.3 0.00 45.3   1.9 63.5   2.4 30.8   2.1
Paradise Hill 9/3/26 2350 60.8   0.6 49   9 41.6   5.9 13.4   5.1 W | 264 23.1   11.4 WSW | 254 0.00 9.9   0.1 73.5   0.9 0.00 55.8   1.6 72.6   5.0 30.6   9.3
Winnemucca 9/3/26 2350 59.8   3.3 51   11 41.6   9.5 9.6   3.5 S | 172 15.3   7.7 SSE | 168 0.00 5.7   0.1 73.6   1.0 0.00 55.0   3.1 73.8   4.6 25.3   8.0
NE Elko 9/3/26 2350 65.7   6.9 29   2 32.7   7.4 9.5   8.5 SW | 222 13.9   11.8 SW | 216 0.00 5.7   0.0 74.7   1.8 0.00 52.2   0.1 78.8   7.7 25.7   1.2
North Elko 9/3/26 2350 60.2   2.2 35   6 32.4   6.3 1.3   3.1 SW | 227 3.8   2.5 WSW | 246 0.00 24.6   0.1 72.9   0.7 0.00 53.5   2.9 76.7   7.7 26.4   10.4
South Elko 9/3/26 2350 57.3   0.3 45   15 36.2   9.6 8.5   5.2 WNW | 284 13.9   9.4 W | 280 0.00 13.7   0.1 71.3   2.5 0.00 53.6   2.6 - 28.0   3.5
Lamoille 9/3/26 2350 60.4   5.4 35   2 32.8   6.2 12.7   7.8 SSW | 208 18.6   12.3 WSW | 242 0.00 6.2   0.1 69.1   1.5 0.00 52.9   1.3 74.6   4.6 26.3   1.6
Reid Gardner Sub 9/3/26 2350 81.4   1.3 15   3 29.0   5.3 0.0   4.2 ESE | 116 0.7   6.5 ESE | 121 0.00 26.3   0.3 89.6   0.7 0.00 64.4   9.5 97.4   0.5 26.0   6.8
Corn Creek 9/3/26 2350 76.4   0.6 20   9 32.4   14.0 11.3   7.6 ENE | 67 19.6   12.3 ENE | 70 0.00 3.1   0.1 88.7   2.5 0.00 68.6   0.1 92.4   1.8 41.1   15.6
Lucky Strike 9/3/26 2350 69.0   2.0 18   9 23.9   15.2 7.9   0.8 SSE | 160 16.9   4.2 SSE | 156 0.00 3.2   0.0 84.4   0.7 0.00 62.6   0.9 81.0   1.0 31.2   3.1
Lower Angel Peak 9/3/26 2350 65.5   3.6 21   6 24.0   11.2 5.4   0.7 ESE | 121 11.0   3.2 E | 96 0.00 3.2   0.1 74.1   0.8 0.00 53.6   0.1 76.2   1.2 22.8   0.4
Angel Peak 9/3/26 2350 55.4   0.0 26   8 20.9   9.2 15.2   7.3 SW | 216 29.3   15.8 WSW | 249 0.00 2.5   0.1 67.5   0.3 0.00 53.8   3.0 65.1   1.7 29.3   15.9
Upper Kyle Canyon 9/3/26 2350 59.6   0.4 24   7 23.0   8.6 5.1   1.0 W | 262 17.1   0.6 WSW | 238 0.00 7.8   0.0 76.2   0.3 0.00 57.6   1.3 69.5   1.4 35.9   0.6
Mt Charleston 9/3/26 2350 60.0   0.3 26   8 24.7   8.9 8.6   1.5 WSW | 252 18.5   8.7 W | 275 0.00 13.2   0.1 66.5   1.2 0.00 58.0   2.0 68.9   1.1 27.4   4.5
Mid Kyle Canyon 9/3/26 2350 66.8   0.2 21   7 25.0   9.5 9.6   6.1 W | 264 20.2   8.9 W | 280 0.00 5.8   0.0 75.7   0.1 0.00 56.6   0.5 76.5   0.8 32.0   1.2
Blue Diamond 9/3/26 2350 78.4   0.9 23   8 37.3   9.5 9.6   1.8 NW | 313 19.8   0.1 NW | 305 0.00 1.2   0.0 87.6   0.3 0.00 66.9   0.1 87.4   0.4 30.1   3.3
Artesian Sub 9/3/26 2350 86.6   1.5 14   3 31.2   7.1 5.3   0.5 SSE | 149 10.1   1.0 SSE | 162 0.00 11.7   0.1 92.5   0.6 0.00 76.9   0.7 98.7   1.0 23.2   0.7
North Henderson 9/3/26 2350 87.1   0.1 14   2 32.1   3.9 3.1   5.0 SSW | 192 7.7   10.7 SSW | 210 0.00 10.4   0.1 96.0   0.7 0.00 77.8   2.6 99.2   1.4 27.7   1.2
Sandy Valley 9/3/26 2350 76.9   1.4 31   9 43.8   9.5 2.8   0.5 SE | 140 4.5   1.5 ESE | 120 0.00 7.8   0.2 90.4   0.2 0.00 69.0   0.8 89.4   0.0 22.5   1.6
Searchlight 9/3/26 2350 73.1   0.0 20   3 29.6   4.6 3.9   1.2 ESE | 121 5.8   1.2 SE | 128 0.00 5.8   0.2 87.2   1.4 0.00 65.4   0.2 88.1   1.8 26.3   0.9
Laughlin 9/3/26 2350 88.9   1.3 13   1 31.5   1.9 4.6   1.5 WSW | 240 7.0   0.0 SW | 236 0.00 4.5   0.0 99.8   1.2 0.00 77.4   3.1 101.6   1.7 27.0   3.1
31Mission Hills 9/3/26 2350 81.3   0.6 14   3 26.8   5.3 6.7   0.7 S | 175 9.7   0.7 SSE | 168 0.00 6.6   0.2 88.9   0.5 0.00 74.2   0.6 93.7   0.9 32.5   0.6
32 Enterprise Sierra Cliffs 9/3/26 2350 79.4   0.0 21   8 36.0   11.1 8.7   3.8 SSW | 194 14.4   6.3 SSW | 192 0.00 1.4   0.0 86.0   0.1 0.00 72.8   0.5 89.8   0.7 30.7   5.7
29 Calico Basin 9/3/26 2350 77.5   1.2 18   7 30.9   12.6 11.4   2.4 SW | 215 20.7   5.6 SSW | 212 0.00 2.4   0.0 86.4   0.2 0.00 67.7   1.5 86.1   0.4 29.6   13.7
28 Indian Springs 9/3/26 2350 73.6   0.2 18   9 27.0   17.0 1.6   4.3 NNW | 335 5.1   3.5 W | 276 0.00 4.5   0.1 88.4   0.1 0.00 61.6   1.2 92.1   1.3 33.0   1.4
30 Jean 9/3/26 2350 76.6   0.6 22   5 34.6   7.6 5.3   4.4 SW | 214 12.0   2.2 SSW | 212 0.00 5.0   0.0 86.5   0.2 0.00 65.5   1.9 89.7   0.3 28.9   7.3
VC Highlands NW 9/3/26 2350 52.5   2.1 52   2 35.6   3.1 6.9   2.0 S | 183 16.4   6.8 SSE | 161 0.00 1.6   0.1 65.9   3.0 0.00 48.8   1.8 63.0   5.4 25.2   7.2
Glenbrook-Spooner Summit 9/3/26 2350 48.2   0.2 63   15 36.2   7.1 4.4   4.9 W | 268 12.8   7.2 WSW | 243 0.00 7.7   0.1 65.9   2.3 0.00 46.4   4.9 56.7   0.5 29.7   1.1
Hobo Hot Springs 9/3/26 2350 61.1   0.3 43   12 38.2   8.6 6.8   0.7 SSW | 204 12.3   3.1 SSW | 212 0.00 1.1   0.1 71.0   1.3 0.00 49.6   1.1 70.9   0.7 38.0   3.9
Jack Valley Ranch 2 9/3/26 2350 57.9   1.9 46   11 37.2   8.2 4.2   2.9 SW | 217 10.6   6.3 SSW | 210 0.00 2.2   0.1 74.4   0.7 0.00 54.1   2.5 67.8   0.7 30.2   5.1
Genoa North 2 9/3/26 2350 60.2   2.4 42   2 37.1   3.5 4.4   0.0 SW | 227 8.7   2.7 WSW | 242 0.00 0.9   0.0 75.5   1.0 0.00 53.5   0.2 70.0   0.5 34.0   5.2
Mottsville 2 9/3/26 2350 59.6   4.5 46   9 38.9   9.4 3.8   1.0 WSW | 240 13.2   8.1 SSE | 168 0.00 1.3   0.0 72.2   1.6 0.00 49.5   3.3 71.2   0.9 24.7   12.2
Kingsbury Village 3 9/3/26 2350 44.9   3.1 68   4 34.9   1.7 2.5   0.5 NW | 307 10.9   1.2 W | 259 0.00 3.3   0.0 61.2   2.8 0.00 40.4   1.3 55.7   1.1 16.4   3.0
Kingsbury-Benjamin Dr 2 9/3/26 2350 47.1   2.8 63   2 35.2   2.0 3.7   1.9 WSW | 245 13.9   9.8 SW | 230 0.00 3.0   0.1 67.9   1.6 0.00 41.9   1.4 58.3   0.9 25.0   1.7
Smith Valley-Wellington 9/3/26 2350 62.8   2.2 39   9 37.1   8.7 9.6   1.9 SW | 218 17.9   2.6 WSW | 239 0.00 3.6   0.0 80.8   0.3 0.00 57.4   2.6 74.8   1.9 31.0   3.4
Sheridan South 2 9/3/26 2350 60.1   1.1 44   10 38.1   7.5 10.4   2.8 SE | 127 25.7   11.7 ESE | 106 0.00 0.5   0.0 73.5   0.7 0.00 47.3   1.2 70.9   0.5 31.2   0.2
Silver Springs 9/3/26 2350 64.3   2.8 38   5 37.9   6.1 12.4   4.9 SW | 235 20.1   7.7 SW | 228 0.00 5.0   0.1 78.6   0.2 0.00 54.2   0.1 76.1   1.7 42.5   3.1
Fernley 9/3/26 2350 64.4   2.6 37   7 37.5   7.6 8.2   6.6 WSW | 243 14.8   6.5 SW | 233 0.00 3.2   0.0 75.5   0.6 0.00 54.0   0.8 75.5   1.6 40.5   10.9
Spanish Springs 9/3/26 2350 61.7   2.0 45   11 40.3   8.7 6.6   1.6 S | 188 11.7   7.2 S | 169 0.00 10.3   0.1 76.2   0.2 0.00 57.4   4.9 70.3   1.8 27.0   1.1
Suttcliffe South 2 9/3/26 2350 58.9   1.2 60   24 45.2   12.1 9.2   11.0 W | 268 15.6   14.5 W | 281 0.00 4.1   0.1 71.4   1.8 0.00 56.5   8.8 71.1   0.5 42.6   11.6
Lemmon Valley North 9/3/26 2350 54.9   0.1 65   22 43.3   10.5 4.5   2.2 S | 178 7.6   7.3 S | 179 0.00 2.0   0.1 70.6   0.5 0.00 48.9   3.2 66.5   0.6 32.4   1.5
Lemmon Valley NW 3 9/3/26 2350 56.6   1.5 61   17 43.2   10.1 10.4   5.5 SW | 224 17.5   8.8 SW | 235 0.00 1.3   0.1 73.7   1.0 0.00 52.8   3.1 68.7   1.1 32.2   6.1
VC Highlands North 9/3/26 2350 54.3   1.9 50   4 36.2   3.8 3.2   1.4 S | 178 8.4   4.8 S | 184 0.00 4.7   0.2 69.7   5.5 0.00 50.2   7.3 63.6   4.1 30.1   3.2
Upper Voltaire Cyn 9/3/26 2350 55.4   0.1 48   16 36.3   10.3 13.4   4.1 S | 182 25.7   10.6 S | 174 0.00 1.2   0.0 69.9   1.3 0.00 53.5   4.1 64.1   0.1 43.5   10.2
Yerington NW 9/3/26 2350 62.4   1.4 42   14 38.9   11.5 15.0   12.2 W | 270 23.7   19.0 W | 272 0.00 7.2   0.1 74.6   0.4 0.00 49.5   5.5 75.4   3.5 41.7   9.7
Spanish Springs SW 9/3/26 2350 60.4   2.1 47   10 40.0   8.2 5.2   5.7 SW | 233 9.2   11.8 WSW | 242 0.00 1.4   0.0 76.1   0.4 0.00 56.4   3.5 70.4   2.0 35.2   4.2
Cosgrave 2 8/27/26 0750 62.9   4.1 34   3 33.8   1.4 2.6   0.5 WSW | 246 4.1   1.0 W | 267 0.00 3.8   0.1 77.4   2.9 0.00 62.7   3.3 77.4   3.5 11.2   3.9
Winnemucca-Grass Valley 2 9/3/26 2350 60.0   11.1 48   10 40.4   5.5 7.8   3.3 NNW | 346 13.5   7.8 NNW | 342 0.00 7.8   0.1 68.0   1.6 0.00 48.9   5.5 74.4   6.5 31.8   3.5
Winnemucca-Dutch Flat Rd 9/3/26 2350 59.4   3.5 48   9 39.9   8.1 9.8   4.3 WSW | 240 18.3   10.9 SW | 236 0.00 6.2   0.1 73.7   0.5 0.00 54.3   1.9 74.6   6.4 30.8   0.0
Paradise Valley 2 9/3/26 2350 60.8   2.2 46   7 39.7   6.0 4.4   0.0 W | 270 8.3   1.2 WSW | 250 0.00 12.5   0.2 71.9   1.5 0.00 52.3   0.7 72.5   3.8 24.2   1.7
Golconda 2 9/3/26 2350 61.6   2.4 45   11 39.9   9.2 12.8   11.3 NW | 321 18.9   16.0 NNW | 336 0.00 1.9   0.1 75.7   1.9 0.00 53.2   2.2 75.1   6.9 25.7   11.5
Battle Mountain - South 9/3/26 2350 61.0   3.6 44   14 38.8   12.5 1.3   1.2 ENE | 60 3.0   1.7 NNE | 26 0.00 9.2   0.1 75.2   0.7 0.00 52.1   9.7 78.6   8.3 27.1   0.5
Geiger Summit 9/3/26 2350 51.0   3.7 100   0 51.0   3.7 7.6   4.5 S | 190 11.2   3.6 SSW | 194 0.00 6.0   0.1 63.9   2.4 0.00 47.0   4.2 60.9   3.3 35.2   14.7
Combs Canyon 3 9/3/26 2350 59.6   1.4 43   8 37.1   6.5 10.0   2.3 SSW | 198 19.5   4.4 S | 172 0.00 1.0   0.0 74.3   0.6 0.00 54.2   2.0 69.7   1.8 28.9   1.7
Clear Creek 9/3/26 2350 55.6   0.1 48   14 36.5   8.8 5.5   0.6 S | 188 11.8   4.5 SSE | 166 0.00 3.4   0.1 69.5   2.9 0.00 53.2   3.2 64.9   0.3 31.2   7.6
Eastlake 2 9/3/26 2350 59.2   4.3 44   0 37.2   4.1 11.6   9.6 SE | 143 22.5   17.3 SSE | 153 0.00 3.4   0.0 71.9   1.7 0.00 54.6   2.1 67.0   0.1 29.3   0.7
Lovelock-Colado 2 9/3/26 2350 57.5   3.2 52   22 39.9   11.1 1.8   4.4 W | 260 4.1   4.2 W | 276 0.00 - 76.4   1.1 0.00 54.1   8.5 77.4   5.9 25.0   4.0
Spanish Springs NW 9/3/26 2350 61.4   2.3 47   14 41.2   11.2 5.1   3.5 SSW | 203 11.0   7.4 S | 186 0.00 12.3   0.2 68.9   1.1 0.00 57.2   4.0 68.6   1.5 30.9   7.1
Battle Mountain NW 9/3/26 2350 61.2   0.9 44   13 38.9   9.9 3.1   1.3 NNE | 27 5.8   3.1 N | 351 0.00 8.8   0.0 76.6   0.9 0.00 52.3   3.5 78.4   9.1 34.2   5.6
Austin 2 9/3/26 2250 49.5   1.3 50   18 31.8   9.2 4.9   0.9 SW | 221 7.0   0.0 SSW | 212 0.00 2.5   0.2 67.5   3.1 0.00 36.8   0.5 75.0   6.5 37.1   10.7
Elko-Osino 9/3/26 2350 57.5   0.6 34   7 29.6   4.8 7.2   6.3 SSW | 212 9.9   7.5 SW | 217 0.00 1.5   0.1 78.6   2.5 0.00 52.1   0.2 78.6   7.3 27.3   0.8
Elko-Bill Fishpond 2 9/3/26 2350 62.1   5.7 30   3 30.1   7.4 8.6   4.9 SSW | 192 13.9   8.9 SSW | 194 0.00 3.5   0.0 69.8   1.6 0.00 51.7   0.5 76.8   7.0 27.4   7.1
Spring Creek SE 2 9/3/26 2350 56.9   1.2 35   7 29.3   6.7 3.4   1.3 SE | 139 6.1   3.5 SE | 136 0.00 0.3   0.0 71.1   1.6 0.00 51.4   3.2 77.2   6.5 29.4   0.4
Spring Creek NW 9/3/26 2350 60.8   2.7 34   7 32.1   8.2 11.8   10.8 WNW | 285 18.8   16.4 WNW | 283 0.00 2.3   0.1 74.2   2.1 0.00 51.7   1.2 76.7   6.6 24.5   1.7
Elko-Moleen 9/3/26 2350 58.3   1.8 38   8 32.9   7.5 3.9   3.4 WNW | 285 5.0   1.6 WNW | 293 0.00 6.3   0.0 78.2   1.2 0.00 47.3   4.5 79.2   7.9 25.5   1.0
Elko-West 9/3/26 2350 57.9   2.8 37   8 31.5   8.6 9.0   7.7 SW | 234 13.4   10.3 WSW | 238 0.00 33.8   0.4 68.6   1.6 0.00 45.4   6.1 79.4   8.0 29.7   5.6
Elko-Adobe Creek 9/3/26 2350 53.9   1.1 40   8 29.9   6.3 3.4   0.0 W | 279 6.6   1.1 WSW | 254 0.00 18.6   0.0 69.4   0.8 0.00 48.4   2.8 70.6   7.7 34.4   3.2
Tuscarora SW 9/3/26 2350 56.8   4.6 44   10 35.1   10.6 1.5   1.4 ESE | 123 4.2   0.1 ESE | 105 0.00 6.8   0.0 72.6   0.4 0.00 47.1   4.3 72.7   8.2 31.0   2.9
Elko-Monument Peak 9/3/26 2350 54.0   0.3 36   6 27.8   4.3 0.6   3.3 SW | 223 4.1   1.6 SW | 235 0.00 4.0   0.2 71.0   1.3 0.00 44.2   6.9 72.4   6.6 29.4   2.5
Wild Horse 9/3/26 2350 56.7   4.1 46   7 36.1   8.1 12.0   9.4 WNW | 289 17.6   11.8 W | 271 0.00 4.6   0.0 67.6   1.2 0.00 47.7   0.8 69.6   7.5 29.7   4.6
Max     88.9 100 51.0 20.8 - 29.7 - 0.01 43.3 99.8 0.04 77.8 101.6 50.6
Avg     59.8 46 37.0 7.3 - 14.1 - 0.00 7.1 72.9 - - - -
Min     44.9 13 20.9 0.0 - 0.7 - 0.00 0.3 32.0 0.00 -2.1 50.7 13.2

Latest Observation

114 Stations

Daily Data
as of 9/3/26 11:55 PM PDT
Station Date Daily Max Temp (°F) Daily Min Temp (°F) Daily Max RH (%) Daily Min RH (%) Wind Spd (mph) Wind Dir (°) Daily Max Wind (mph) Max Wind Dir (°) Time of Max Wind Daily Rain (In) Weekly Precip (In) Season Precip (In) Soil Moist (%) Fuel Temp (°F) Fuel Moisture (%) MinBV Day (V)
Hobart Mills 9/2/26 61.9   4.7 44.6   0.0 67   0 37   13 3.1   0.6 SSW | 210 21.4   4.5 WSW | 245 1240 0.00 0.03 - 7.6   0.1 52.6   5.2 8   1 12.5   0.0
Prosser Dam 9/2/26 61.8   7.2 41.5   2.0 71   9 37   16 5.9   0.2 SW | 215 29.6   1.6 SW | 225 1635 0.00 0.09 - 5.3   0.0 53.0   4.9 8   0 12.6   0.0
West Incline Village 9/2/26 54.0   7.3 40.4   1.8 75   14 46   20 4.3   0.4 SW | 216 26.8   5.6 S | 190 1127 0.00 0.26 - 11.8   0.1 50.1   5.4 7   1 12.4   0.0
Incline Village (Fairview Blvd) 9/2/26 57.6   6.4 42.9   2.4 70   11 42   16 2.8   0.5 WSW | 244 21.2   3.5 W | 280 1352 0.00 0.33 - 7.7   0.0 54.6   4.2 7   0 12.6   0.0
Incline Village (Diamond Peak) 9/2/26 53.7   6.8 40.2   2.4 75   10 47   19 4.2   0.0 WNW | 298 15.5   2.0 WNW | 292 0556 0.00 0.03 - 2.5   0.1 -11.6   0.2 - 12.4   0.0
Incline Village (Mill Creek) 9/2/26 58.6   6.8 45.3   1.9 69   4 42   15 3.4   0.9 WSW | 245 19.0   0.9 WNW | 297 0937 0.00 0.33 - 2.9   0.0 -8.7   0.2 - 12.5   0.0
Incline Village (Lakeshore Blvd) 9/2/26 57.2   6.5 47.5   0.9 75   4 50   17 5.5   1.6 WSW | 238 18.5   2.9 SW | 221 1516 0.00 0.30 - 22.4   1.6 53.0   3.1 10   0 12.4   0.0
Glenbrook 9/2/26 59.1   5.7 48.7   1.9 69   16 39   10 10.1   3.7 WSW | 244 26.2   3.0 WSW | 252 0807 0.00 0.30 - 43.0   0.1 54.9   0.2 15   2 12.6   0.0
Zephyr Cove 9/2/26 61.3   7.2 45.2   0.6 65   11 34   15 1.0   0.1 SE | 140 14.7   2.0 SSE | 156 1055 0.00 0.32 - 2.8   0.0 55.0   4.8 7   0 12.6   0.0
Kingsbury Grade 9/2/26 60.6   5.9 41.3   3.3 74   13 32   15 2.2   0.2 W | 271 20.5   5.1 SSW | 199 1046 0.00 0.28 - 2.4   0.0 52.3   6.6 7   0 12.5   0.0
South Daggett Pass (Ridge) 9/2/26 55.4   7.5 38.5   2.8 82   16 38   20 3.4   0.7 WNW | 284 28.3   7.6 W | 269 1358 0.00 0.29 - 2.2   0.0 48.3   5.6 8   0 12.5   0.1
Palomino Valley 9/2/26 69.2   10.1 49.3   4.0 47   2 21   11 8.1   0.0 SW | 226 33.4   9.2 SW | 227 1426 0.00 0.03 - 6.6   0.1 60.3   8.4 6   0 12.5   0.0
East Cold Springs 9/2/26 66.0   6.2 46.6   3.1 57   7 28   13 10.6   1.5 SW | 229 30.9   3.0 SW | 230 2216 0.00 0.00 - 1.6   0.0 56.8   8.9 6   1 12.6   0.0
Peavine 9/2/26 62.8 51.0 44 26 23.6 WSW | 243 52.2 WSW | 244 0042 0.00 0.00 - 4.3 60.4 4 13.1
West Verdi Peak 9/2/26 60.1   8.5 42.8   2.5 67   6 35   16 4.3   0.2 S | 179 26.2   0.2 W | 280 1408 0.00 0.02 - 6.5   0.1 53.5   7.7 6   1 12.6   0.0
West Verdi 9/2/26 65.5   7.9 50.2   1.9 54   0 30   13 7.6   0.3 SSW | 213 37.6   2.2 S | 176 1251 0.00 0.06 - 6.2   0.1 60.4   6.8 3   0 12.6   0.1
South Verdi 9/2/26 63.9   6.2 49.1   2.1 54   7 30   15 18.6   2.0 SW | 225 44.7   5.7 SSW | 208 1209 0.00 0.08 - 10.4   0.2 57.4   6.8 5   1 12.6   0.0
Northwest Reno 9/2/26 65.7   7.6 52.0   1.4 53   7 27   12 23.5   0.9 WSW | 249 47.9   8.6 WSW | 251 1147 0.00 0.05 - 25.0   0.3 -17.8   0.1 - 12.6   0.0
North Lawton 8/27/26 85.2   2.6 66.7   6.0 35   16 18   2 8.9   1.0 SW | 230 25.0   2.4 SW | 236 1526 0.00 0.00 - - - - 12.6   0.0
West Reno (Mogul) 9/2/26 64.8   9.0 51.1   0.5 51   1 29   13 10.1   3.1 WSW | 242 33.3   2.2 WSW | 251 1139 0.00 0.00 - 19.6   0.0 59.0   9.8 2   0 12.5   0.0
Caughlin (Hunter Lake Trail) 9/2/26 65.6   8.4 50.0   1.7 51   0 24   9 7.8   1.9 WSW | 248 39.6   0.9 WSW | 247 2219 0.00 0.12 - 16.5   0.1 58.1   8.4 7   0 12.6   0.0
ArrowCreek 9/2/26 66.6   8.0 50.5   1.5 49   3 20   5 6.6   1.3 SSW | 194 40.2   8.3 SSE | 168 1443 0.00 0.14 - - - - 12.4   0.0
Tracy 9/2/26 72.0   8.1 56.2   3.6 41   1 19   4 10.4   2.2 WSW | 244 29.3   7.1 WSW | 252 1355 0.00 0.09 - 15.9   0.2 63.5   8.5 6   0 12.7   0.0
Virginia Highlands 9/2/26 60.1   10.3 48.7   0.9 58   6 35   15 4.3   1.9 SW | 230 24.6   1.4 W | 261 0414 0.00 0.12 - 8.0   0.0 52.9   10.8 6   1 12.6   0.0
Virginia City 9/2/26 60.2   10.0 47.3   3.5 57   9 26   9 8.5   1.0 SSW | 196 30.4   0.0 SSW | 197 1548 0.00 0.12 - 4.7   0.1 54.0   10.0 5   0 12.6   0.1
Six Mile Canyon 9/2/26 70.1   10.6 54.3   5.6 39   7 19   9 9.0   1.5 W | 264 25.8   3.0 WNW | 296 2308 0.00 0.10 - 12.2   0.3 61.8   10.2 3   0 12.8   0.0
Mt Rose Highway 9/2/26 56.7   7.3 43.0   1.4 66   19 34   11 5.4   0.1 SSW | 197 35.2   5.8 WSW | 242 0212 0.00 0.23 - 7.4   0.0 51.5   6.5 6   1 12.5   0.0
Pleasant Valley 9/2/26 66.3   8.9 54.6   3.2 48   6 29   13 16.1   5.3 SW | 224 34.8   0.5 W | 263 2127 0.00 0.14 - 2.3   0.0 62.1   8.1 7   0 12.6   0.0
New Washoe City 9/2/26 65.9   7.5 52.3   2.4 53   6 30   15 10.2   0.4 SW | 229 31.7   1.0 WSW | 242 1352 0.00 0.08 - 3.5   0.0 58.6   7.1 7   0 12.6   0.0
Franktown Creek 9/2/26 65.7   7.8 53.7   1.9 54   9 30   11 4.8   0.6 SSW | 207 29.3   2.1 SSW | 193 0323 0.00 0.14 - 7.0   0.0 60.0   6.1 7   0 12.6   0.0
Musgrove Creek 9/2/26 63.4   7.4 49.6   2.2 64   10 35   15 2.7   0.0 N | 354 21.6   0.7 NE | 43 1723 0.00 0.21 - 10.2   0.0 57.0   7.7 7   1 12.6   0.0
East Carson 11/22/24 63.8   0.3 41.7   4.6 85   21 21   9 14.9   6.0 SW | 224 46.6   12.7 S | 171 1835 0.05 0.05 4.48 2.5   0.0 53.9   0.3 9   0 12.6   0.0
Kings Canyon 9/2/26 65.7   7.8 51.1   4.1 51   17 28   11 4.8   3.1 S | 177 28.1   3.6 SW | 222 1128 0.00 0.13 - 4.1   0.0 59.2   8.6 4   0 12.6   0.0
Carson City (Voltaire Canyon) 9/2/26 68.1   7.8 53.6   3.2 46   10 24   9 14.0   1.2 SSW | 205 32.8   0.4 SW | 224 1631 0.00 0.00 - 2.8   0.0 -11.0   0.0 - 12.6   0.1
Jacks Valley 9/2/26 67.3   7.4 52.3   2.5 47   12 20   6 10.0   0.3 SW | 233 36.0   5.0 W | 262 1600 0.00 0.24 - 4.6   0.1 61.4   6.9 3   0 12.6   0.0
Genoa 9/2/26 71.2   5.3 53.0   2.5 53   13 27   13 1.4   0.7 SSW | 200 21.7   1.7 WNW | 285 1420 0.00 0.15 - 2.4   0.1 60.9   7.3 7   0 12.4   0.0
South Genoa (Walleys Hot Springs) 9/2/26 70.9   6.8 54.2   2.4 49   7 21   8 7.8   0.7 SW | 218 31.7   1.7 SSW | 198 1631 0.00 0.13 - 4.8   0.0 66.4   5.1 5   0 12.6   0.0
SW Gardnerville (HWY 88) 9/2/26 70.3   5.5 51.7   5.6 50   10 22   8 8.7   3.2 S | 171 30.3   1.6 S | 183 1533 0.00 0.03 - 2.8   0.0 61.0   5.7 7   0 9.5   0.1
Sheridan 9/2/26 71.3   4.9 50.8   2.4 50   16 19   7 4.7   1.7 NW | 326 27.1   4.6 SW | 231 1339 0.00 0.05 - 1.1   0.0 62.2   5.9 3   0 12.6   0.0
Ruhenstroth 9/2/26 69.1   6.2 54.4   2.5 44   9 21   8 13.0   1.4 S | 183 31.3   0.1 SSE | 160 1323 0.00 0.06 - 6.9   0.1 62.6   6.4 5   0 12.6   0.0
Double Spring 9/2/26 65.0   6.5 38.9   9.8 60   10 21   9 6.1   0.8 WNW | 303 30.9   7.2 SSW | 211 1327 0.00 0.14 - 25.3   0.4 55.4   8.3 6   0 12.6   0.0
North Topaz Lake 9/2/26 69.1   6.5 52.8   3.2 41   11 21   10 6.9   1.5 WSW | 241 28.0   3.0 S | 179 1418 0.00 0.22 - 7.5   0.1 62.6   8.0 4   0 12.6   0.1
Wild Oat Mountain 9/2/26 67.6   5.3 49.8   3.5 40   7 21   8 11.6   1.2 SW | 228 33.9   5.0 WSW | 243 1511 0.00 0.13 - 5.7   0.1 59.4   7.5 4   0 12.6   0.0
Smith Valley 9/2/26 72.8   8.2 53.7   6.0 31   6 17   4 8.9   2.1 SSW | 210 30.7   5.3 SW | 233 2040 0.00 0.12 - 2.8   0.0 67.1   5.2 5   0 12.6   0.0
Pine Grove Mountain 9/2/26 61.1   7.7 43.4   4.2 34   7 20   9 8.0   0.8 SSW | 202 28.7   2.7 SW | 231 1725 0.00 0.07 - 6.9   0.2 54.2   8.1 3   1 12.6   0.0
Paradise Hill 9/2/26 67.6   12.9 54.1   1.2 43   8 16   0 15.5   6.7 WSW | 250 39.9   12.9 SW | 236 0849 0.00 0.02 - 10.1   0.2 62.3   10.5 4   0 12.6   0.0
Winnemucca 9/2/26 69.2   12.5 51.9   9.1 43   13 18   2 10.2   2.0 SSW | 212 33.3   9.7 WSW | 243 1409 0.00 0.02 - 5.8   0.0 63.7   12.5 4   0 12.6   0.0
NE Elko 9/2/26 71.1   11.3 52.1   5.9 30   30 16   6 8.3   0.2 SW | 230 27.0   8.7 SSE | 154 0106 0.00 0.02 - 5.7   0.0 65.7   2.6 3   1 12.6   0.0
North Elko 9/2/26 69.0   11.9 50.5   7.0 30   19 17   8 9.1   0.0 WSW | 239 36.9   5.2 SW | 225 1501 0.00 0.05 - 24.8   0.1 63.2   7.1 7   1 12.6   0.0
South Elko 9/2/26 - 50.9   4.8 84   15 16   6 7.9   0.8 W | 266 24.5   10.7 WNW | 290 1427 0.00 0.03 - 13.6   0.1 60.0   8.9 5   1 12.6   0.0
Lamoille 9/2/26 70.0   6.7 51.6   0.1 36   31 14   2 8.2   1.9 SW | 227 28.0   6.6 S | 190 0105 0.00 0.02 - 6.3   0.1 63.0   4.8 5   1 12.8   0.0
Reid Gardner Sub 9/2/26 97.9   1.4 73.9   2.0 18   35 6   4 10.0   2.8 S | 190 32.8   2.2 SSW | 195 1419 0.00 0.00 - 25.2   0.4 87.7   2.1 1   1 12.6   0.0
Corn Creek 9/2/26 94.2   2.4 68.7   3.2 17   18 6   3 6.0   10.1 ESE | 102 25.5   14.5 ESE | 112 1640 0.00 0.00 - 3.1   0.0 84.0   0.4 1   1 12.5   0.0
Lucky Strike 9/2/26 82.0   2.4 61.6   3.2 17   7 5   4 6.4   7.1 W | 276 28.1   5.7 NW | 314 1546 0.00 0.00 - 3.2   0.0 74.0   0.5 1   1 12.6   0.0
Lower Angel Peak 9/2/26 77.5   2.7 53.7   6.3 19   14 6   5 5.6   3.3 SSE | 156 22.5   6.0 SSE | 148 1530 0.00 0.00 - 3.2   0.0 66.9   4.0 1   1 12.6   0.1
Angel Peak 9/2/26 66.7   5.3 50.9   0.4 23   24 7   4 8.6   11.8 SSE | 166 45.2   7.9 SSW | 204 0111 0.00 0.00 - 2.5   0.0 61.4   2.9 3   2 12.5   0.0
Upper Kyle Canyon 9/2/26 68.1   0.3 56.3   0.5 20   17 6   8 8.0   0.8 NW | 318 36.5   11.3 NW | 318 0552 0.00 0.00 - 7.8   0.0 67.1   0.8 3   1 12.6   0.0
Mt Charleston 9/2/26 67.8   0.2 56.0   1.5 21   12 7   7 6.1   0.8 WNW | 292 31.9   1.6 WNW | 300 0515 0.00 0.00 - 13.3   0.0 67.2   2.0 11   0 12.6   0.0
Mid Kyle Canyon 9/2/26 75.6   2.0 57.1   2.5 17   13 6   6 10.1   0.3 W | 261 33.3   0.2 W | 272 1918 0.00 0.00 - 5.8   0.0 70.4   2.4 3   1 12.7   0.0
Blue Diamond 9/2/26 87.8   0.6 67.0   4.5 19   3 7   4 10.0   1.5 W | 281 33.4   3.5 W | 279 2309 0.00 0.00 - 1.2   0.0 - - 12.6   0.0
Artesian Sub 9/2/26 97.7   2.0 77.6   0.8 15   21 6   4 7.0   1.6 SSE | 155 24.0   1.5 SE | 134 1536 0.00 0.00 - 11.7   0.0 - 0   0 12.6   0.0
North Henderson 9/2/26 97.8   1.6 80.4   0.6 16   34 6   4 10.4   2.5 SSW | 202 26.4   2.7 SSW | 197 1713 0.00 0.00 - 10.5   0.0 90.5   2.2 1   1 12.6   0.0
Sandy Valley 9/2/26 89.4   1.5 69.8   3.5 25   2 9   5 6.2   0.2 S | 184 24.1   0.6 WSW | 257 1641 0.00 0.00 - 8.0   0.3 80.5   3.0 3   1 12.6   0.0
Searchlight 9/2/26 89.9   0.0 65.1   2.8 24   52 10   10 7.2   2.2 S | 184 27.2   3.4 S | 188 1528 0.00 0.00 - 5.9   0.1 81.0   0.9 1   2 12.5   0.0
Laughlin 9/2/26 103.3   1.1 80.5   5.5 42   13 9   8 6.1   4.7 S | 174 23.8   6.7 SSE | 152 1622 0.00 0.00 - - 92.0   3.2 4   2 12.7   0.0
31Mission Hills 9/2/26 94.6   1.3 74.8   2.0 16   36 6   5 10.2   0.8 SSW | 204 33.2   10.7 WSW | 242 1707 0.00 0.00 - 6.9   0.3 87.1   2.1 3   2 13.2   0.0
32 Enterprise Sierra Cliffs 9/2/26 89.1   1.2 72.3   4.0 18   5 5   5 15.9   4.1 SSW | 211 36.4   6.3 SW | 227 1442 0.00 0.00 - 1.4   0.1 82.6   3.0 3   1 13.2   0.0
29 Calico Basin 9/2/26 85.7   0.7 69.3   2.8 16   1 5   3 16.9   2.6 SW | 216 43.2   3.9 SW | 223 1311 0.00 0.00 - 2.4   0.2 79.6   2.3 2   1 13.2   0.0
28 Indian Springs 9/2/26 90.8   1.0 62.7   6.7 17   9 4   2 8.2   1.9 WSW | 242 34.4   2.6 WSW | 239 1601 0.00 0.00 - 4.6   0.1 79.7   3.8 3   1 13.2   0.0
30 Jean 9/2/26 89.4   1.6 67.4   3.0 21   8 6   5 13.5   5.0 SW | 236 36.3   8.8 WSW | 255 1513 0.00 0.00 - 5.1   0.2 80.4   2.6 2   1 13.1   0.0
VC Highlands NW 9/2/26 57.6   12.3 47.0   0.7 59   7 35   18 4.4   0.1 SW | 215 32.4   12.9 SE | 133 0355 0.00 0.12 - 1.5   0.1 51.6   10.4 7   0 13.1   0.0
Glenbrook-Spooner Summit 9/2/26 56.2   6.6 41.4   4.1 63   12 35   13 8.2   1.7 W | 259 30.8   1.7 WSW | 241 1402 0.00 0.31 - 7.8   0.1 54.4   6.7 7   0 13.2   0.0
Hobo Hot Springs 9/2/26 70.2   7.5 48.6   5.5 49   8 20   9 8.8   2.9 SW | 218 34.2   1.0 SW | 217 1347 0.00 0.13 - 1.0   0.0 60.8   5.5 6   0 13.2   0.0
Jack Valley Ranch 2 9/2/26 67.1   8.3 51.6   4.5 47   14 19   3 6.3   1.3 SW | 236 35.3   0.2 W | 260 0148 0.00 0.23 - 2.1   0.0 61.3   8.4 5   0 13.2   0.0
Genoa North 2 9/2/26 69.5   7.5 53.3   3.1 46   12 24   13 5.6   0.8 SSW | 204 28.8   8.3 S | 182 1439 0.00 0.10 - 0.8   0.0 62.8   7.2 5   0 13.2   0.0
Mottsville 2 9/2/26 70.3   6.7 52.8   4.1 49   7 19   8 4.9   0.2 WNW | 290 36.9   14.7 WNW | 301 1356 0.00 0.18 - 1.3   0.0 61.4   6.3 7   0 13.2   0.0
Kingsbury Village 3 9/2/26 54.7   8.7 39.1   2.0 76   13 36   18 3.0   0.6 NW | 315 19.4   1.1 NW | 307 1523 0.00 0.29 - 3.2   0.0 49.9   4.5 9   0 13.2   0.0
Kingsbury-Benjamin Dr 2 9/2/26 57.4   7.4 40.5   2.2 75   15 33   18 2.8   0.8 W | 260 23.2   4.6 SW | 217 1427 0.00 0.29 - 3.1   0.2 50.3   6.3 7   0 13.2   0.0
Smith Valley-Wellington 9/2/26 72.9   7.7 54.8   4.7 36   8 16   6 8.2   0.2 SW | 228 27.7   1.6 WSW | 246 1817 0.00 0.03 - 3.5   0.1 66.1   6.5 5   0 13.2   0.0
Sheridan South 2 9/2/26 70.4   4.8 48.5   6.7 45   10 19   6 6.2   0.9 SW | 219 31.4   2.5 S | 189 1233 0.00 0.07 - 0.5   0.0 61.6   6.0 6   0 12.7   0.6
Silver Springs 9/2/26 74.5   8.0 54.1   8.4 34   6 17   8 13.1   2.1 WSW | 253 39.4   6.2 W | 261 0116 0.00 0.08 - 5.0   0.1 64.7   10.3 6   0 13.1   0.0
Fernley 9/2/26 73.9   8.5 53.1   7.7 39   4 17   9 8.7   2.0 WNW | 293 29.6   12.4 WNW | 298 1721 0.00 0.04 - 3.2   0.0 63.0   12.6 5   0 13.2   0.0
Spanish Springs 9/2/26 68.6   10.2 52.5   0.8 46   4 22   11 7.5   1.0 WSW | 247 28.1   3.5 S | 178 2236 0.00 0.06 - 10.4   0.2 62.8   9.1 6   0 13.2   0.0
Suttcliffe South 2 9/2/26 71.6   9.5 47.7   9.3 50   13 21   11 11.7   1.5 WSW | 250 31.0   12.8 SSW | 202 1305 0.00 0.00 - 4.3   0.2 61.6   10.9 6   0 13.1   0.0
Lemmon Valley North 9/2/26 66.0   8.1 45.8   3.5 53   5 24   13 11.2   0.8 SSW | 193 33.9   0.8 SW | 214 1114 0.00 0.02 - 2.1   0.0 57.4   9.7 6   1 13.2   0.0
Lemmon Valley NW 3 9/2/26 67.6   7.4 49.8   2.7 49   4 22   11 7.7   2.6 W | 265 26.1   7.2 WSW | 239 1342 0.00 0.02 - 1.2   0.1 59.3   10.0 6   0 13.2   0.0
VC Highlands North 9/2/26 59.5   11.4 42.9   4.9 55   5 34   17 5.0   1.9 SW | 217 26.8   1.4 SW | 221 0414 0.00 0.09 - 4.6   0.5 52.8   10.9 7   0 13.2   0.0
Upper Voltaire Cyn 9/2/26 64.2   7.0 49.4   2.8 48   13 25   8 9.9   0.0 S | 190 33.3   0.5 S | 175 1503 0.00 0.23 - 1.1   0.0 58.0   8.3 7   0 13.2   0.0
Yerington NW 9/2/26 71.9   7.5 55.0   2.5 48   12 16   4 10.9   0.9 WSW | 249 32.0   7.7 W | 276 1606 0.00 0.20 - 7.2   0.1 63.5   6.3 8   1 13.2   0.0
Spanish Springs SW 9/2/26 68.4   9.1 52.8   0.0 42   1 20   9 10.1   2.3 SW | 235 30.9   0.5 W | 271 2133 0.00 0.05 - 1.4   0.1 62.3   6.7 6   0 13.2   0.0
Cosgrave 2 8/26/26 94.1   3.1 59.4   0.6 40   15 11   2 5.7   1.4 SSW | 205 26.1   5.0 WSW | 249 1345 0.00 0.00 - 4.0   0.1 82.4   4.3 5   1 13.2   0.0
Winnemucca-Grass Valley 2 9/2/26 67.9   12.6 43.4   8.4 65   0 17   4 7.1   1.5 SW | 216 28.3   5.0 SSW | 203 1527 0.00 0.14 - 7.8   0.2 58.4   12.6 7   0 13.2   0.0
Winnemucca-Dutch Flat Rd 9/2/26 68.1   12.3 52.4   7.6 47   16 15   1 10.2   1.7 SW | 235 30.8   0.5 W | 262 0229 0.00 0.07 - 6.2   0.0 62.3   10.7 3   0 13.2   0.0
Paradise Valley 2 9/2/26 68.7   12.3 51.6   1.3 46   5 15   1 7.5   2.6 SW | 214 26.0   5.6 S | 180 1155 0.00 0.08 - 12.7   0.2 60.7   7.0 4   0 13.2   0.0
Golconda 2 9/2/26 68.2   14.9 51.0   9.4 42   5 15   4 10.3   1.5 WNW | 282 37.3   0.6 W | 275 0143 0.00 0.11 - 1.9   0.1 63.7   11.0 6   0 13.1   0.0
Battle Mountain - South 9/2/26 70.3   13.4 42.4   15.5 35   3 17   6 6.6   1.0 WSW | 237 27.6   0.7 WSW | 252 1306 0.00 0.01 - 9.2   0.0 62.0   12.4 3   0 13.1   0.0
Geiger Summit 9/2/26 57.6   9.7 42.7   2.8 100   0 100   0 4.9   1.6 SSW | 212 20.5   6.1 W | 280 1618 0.00 0.13 - 6.1   0.3 49.9   9.5 7   1 13.2   0.0
Combs Canyon 3 9/2/26 67.9   8.0 52.2   4.3 47   4 24   9 7.7   1.0 SW | 217 30.7   1.1 WSW | 244 1427 0.00 0.11 - 1.0   0.0 61.7   7.4 6   0 13.2   0.0
Clear Creek 9/2/26 64.5   6.7 50.0   3.8 48   12 26   8 7.0   2.7 SSW | 192 38.8   5.2 S | 173 1339 0.00 0.23 - 3.5   0.0 59.5   6.0 8   0 13.1   0.0
Eastlake 2 9/2/26 66.8   7.5 52.5   2.4 52   6 25   10 6.5   3.2 S | 185 28.6   7.0 SW | 225 1526 0.00 0.11 - 3.4   0.0 60.8   6.5 6   0 13.3   0.0
Lovelock-Colado 2 9/2/26 71.5   10.9 45.6   8.7 47   2 21   9 5.6   0.9 SSW | 197 28.9   7.1 SW | 224 1343 0.00 0.06 - - 60.6   10.3 5   0 13.1   0.0
Spanish Springs NW 9/2/26 70.1   7.9 53.2   2.7 44   3 22   9 6.8   0.8 SW | 228 23.8   7.0 SSW | 209 1742 0.00 0.04 - 12.5   0.2 62.6 4   0 13.1   0.2
Battle Mountain NW 9/2/26 69.2   14.5 48.8   12.2 34   2 16   6 8.0   0.1 W | 265 28.6   0.4 WSW | 242 1311 0.00 0.00 - 8.9   0.2 63.8   12.9 3   1 13.2   0.0
Austin 2 9/2/26 68.5   5.6 37.3   9.6 47   7 14   3 6.8   4.6 W | 267 26.4   7.0 W | 260 1342 0.00 0.24 - 2.3   0.0 56.1   9.3 6   3 13.2   0.0
Elko-Osino 9/2/26 71.3   11.2 51.9   4.6 31   30 14   6 8.3   0.4 SW | 228 28.1   5.5 W | 269 1533 0.00 0.00 - 1.4   0.1 64.0   4.1 6   1 13.2   0.0
Elko-Bill Fishpond 2 9/2/26 69.8   10.0 52.2   5.8 31   31 16   5 6.6   0.5 SW | 218 20.4   8.9 W | 271 1330 0.00 0.00 - 3.5   0.0 62.3   4.5 6   1 13.2   0.0
Spring Creek SE 2 9/2/26 70.7   9.3 48.2   0.6 30   33 14   5 5.9   5.4 SW | 224 29.1   7.0 SSW | 210 0150 0.00 0.00 - 0.3   0.1 60.9   5.8 6   1 13.3   0.0
Spring Creek NW 9/2/26 70.2   9.9 52.9   0.9 29   26 14   5 7.4   1.4 W | 263 22.7   14.4 WSW | 247 1431 0.00 0.00 - 2.2   0.0 63.8   4.1 4   1 13.2   0.0
Elko-Moleen 9/2/26 71.4   12.3 51.8   4.0 40   10 14   6 7.1   2.0 W | 269 26.4   11.2 WSW | 254 1403 0.00 0.00 - 6.3   0.1 63.8   10.5 6   1 13.1   0.1
Elko-West 9/2/26 71.4   11.5 51.5   0.9 36   18 14   6 7.3   1.3 WSW | 238 24.1   10.9 SW | 220 1249 0.00 0.00 - - 61.8   4.7 5   1 13.0   0.3
Elko-Adobe Creek 9/2/26 62.8   13.1 45.6   10.3 33   12 18   9 8.2   4.5 WSW | 257 31.2   5.0 SSW | 211 1253 0.00 0.00 - 18.5   0.1 57.2   15.4 5   1 13.2   0.0
Tuscarora SW 9/2/26 64.5   15.0 42.8   6.0 35   0 18   10 7.5   1.0 SW | 214 28.2   7.5 WSW | 237 1358 0.00 0.00 - 6.9   0.2 56.2   13.1 5   0 13.1   0.0
Elko-Monument Peak 9/2/26 65.8   12.3 37.3   13.9 34   3 16   8 7.0   3.4 SW | 216 27.0   6.7 WSW | 242 1347 0.00 0.00 - 3.7   0.0 56.2   13.4 4   1 13.1   0.1
Wild Horse 9/2/26 62.1 46.8 44 18 10.7 WSW | 250 34.3 WSW | 255 0930 0.00 0.00 - 4.6 56.9 5 12.3
Max   103.3 80.5 100 100 23.6 - 52.2 - - 0.00 - - 43.0 92.0 15 13.3
Avg   - - - - 8.1 - - - - - - - 6.8 59.5 5 -
Min   53.7 37.3 15 4 1.0 - 14.7 - - 0.00 - - 0.3 -17.8 0 9.5

Fosberg 6Hr Max

Map

Hourly Data

Fosberg 6Hr Max

Map

Hourly Data